Terminal Aerodrome Forecast
Issued by NWS Wakefield, VA

Home | Current Version | Previous Version | Text Only | Print | Product List | Glossary On
Versions: 1 2 3 4 5 6 7 8 9 10 11 12 13
000
FTUS41 KAKQ 222300
TAFRIC
TAF
KRIC 222339Z 2300/2324 05005KT P6SM SCT030 BKN100
     FM230800 07004KT 5SM BR OVC015
     FM231400 07007KT P6SM OVC025
     FM231800 06008KT P6SM BKN040=

USA.gov is the U.S. government's official web portal to all federal, state and local government web resources and services.